createdAt,value
2019-05-02T00:04:30.415Z,98.85
2019-05-02T00:09:25.178Z,93.40
2019-05-02T00:14:43.575Z,101.18
2019-05-02T00:19:49.875Z,101.15
2019-05-02T00:24:59.211Z,101.97
2019-05-02T00:30:09.380Z,99.22
2019-05-02T00:35:21.323Z,105.07
2019-05-02T00:40:31.407Z,107.87
2019-05-02T00:45:41.333Z,102.58
2019-05-02T00:50:50.658Z,105.55
2019-05-02T00:56:00.135Z,110.72
2019-05-02T01:01:29.440Z,118.80
2019-05-02T01:06:36.959Z,115.35
2019-05-02T01:11:44.080Z,117.05
2019-05-02T01:16:58.588Z,122.42
2019-05-02T01:22:27.352Z,121.90
2019-05-02T01:27:50.372Z,115.30
2019-05-02T01:32:55.419Z,121.57
2019-05-02T01:38:18.191Z,109.35
2019-05-02T01:43:29.247Z,79.73
2019-05-02T01:48:45.611Z,109.03
2019-05-02T01:53:53.044Z,112.17
2019-05-02T01:58:58.951Z,106.20
2019-05-02T02:04:09.988Z,109.52
2019-05-02T02:09:21.698Z,114.95
2019-05-02T02:14:36.156Z,113.83
2019-05-02T02:19:50.276Z,126.25
2019-05-02T02:26:06.664Z,133.45
2019-05-02T02:30:43.364Z,134.35
2019-05-02T02:36:03.707Z,130.50
2019-05-02T02:41:25.765Z,131.95
2019-05-02T02:46:30.747Z,127.65
2019-05-02T02:51:38.451Z,148.20
2019-05-02T02:56:52.290Z,142.25
2019-05-02T03:02:28.194Z,132.15
2019-05-02T03:07:42.514Z,133.00
2019-05-02T03:18:27.349Z,150.50
2019-05-02T03:23:36.739Z,135.30
2019-05-02T03:29:40.541Z,136.25
2019-05-02T03:34:13.083Z,123.70
2019-05-02T03:39:27.035Z,120.60
2019-05-02T03:44:55.800Z,138.65
2019-05-02T03:55:31.260Z,122.78
2019-05-02T04:00:38.288Z,117.53
2019-05-02T04:05:46.512Z,119.77
2019-05-02T04:11:38.769Z,114.88
2019-05-02T04:16:35.222Z,120.72
2019-05-02T04:21:52.692Z,118.20
2019-05-02T04:26:58.839Z,117.95
2019-05-02T04:32:11.801Z,116.65
2019-05-02T04:37:25.858Z,119.40
2019-05-02T04:43:18.216Z,118.00
2019-05-02T04:48:34.804Z,116.50
2019-05-02T04:53:42.171Z,119.60
2019-05-02T04:59:01.935Z,130.97
2019-05-02T05:04:03.613Z,128.93
2019-05-02T05:09:17.891Z,126.47
2019-05-02T05:14:21.928Z,122.95
2019-05-02T05:19:28.653Z,120.53
2019-05-02T05:24:38.551Z,124.07
2019-05-02T05:29:40.079Z,116.65
2019-05-02T05:34:44.309Z,119.60
2019-05-02T05:40:08.428Z,118.80
2019-05-02T05:45:14.000Z,123.47
2019-05-02T05:50:18.455Z,130.05
2019-05-02T05:55:24.394Z,138.55
2019-05-02T06:00:29.082Z,134.12
2019-05-02T06:05:40.490Z,128.72
2019-05-02T06:10:43.990Z,137.55
2019-05-02T06:15:46.011Z,132.75
2019-05-02T06:20:50.444Z,137.47
2019-05-02T06:25:54.628Z,137.47
2019-05-02T06:31:02.086Z,136.37
2019-05-02T06:36:24.313Z,148.78
2019-05-02T06:41:28.543Z,153.93
2019-05-02T06:46:32.816Z,148.10
2019-05-02T06:51:37.113Z,153.20
2019-05-02T06:56:43.034Z,157.37
2019-05-02T07:01:47.374Z,156.22
2019-05-02T07:06:58.853Z,160.75
2019-05-02T07:12:01.234Z,162.32
2019-05-02T07:17:08.245Z,170.43
2019-05-02T07:22:12.498Z,169.25
2019-05-02T07:27:16.806Z,167.47
2019-05-02T07:32:24.652Z,162.72
2019-05-02T07:37:26.973Z,169.37
2019-05-02T07:42:31.293Z,159.03
2019-05-02T07:47:40.197Z,166.47
2019-05-02T07:52:41.652Z,169.75
2019-05-02T07:57:45.926Z,158.30
2019-05-02T08:02:50.186Z,146.80
2019-05-02T08:07:55.271Z,147.68
2019-05-02T08:12:59.677Z,127.38
2019-05-02T08:18:03.904Z,121.17
2019-05-02T08:23:08.281Z,118.97
2019-05-02T08:28:23.144Z,102.35
2019-05-02T08:33:29.335Z,117.60
2019-05-02T08:38:33.324Z,111.30
2019-05-02T08:43:40.261Z,108.05
2019-05-02T08:48:43.804Z,113.80
2019-05-02T08:53:52.204Z,103.75
2019-05-02T08:58:54.131Z,103.85
2019-05-02T09:03:58.346Z,107.37
2019-05-02T09:09:02.720Z,115.25
2019-05-02T09:14:06.954Z,98.52
2019-05-02T09:19:15.222Z,97.40
2019-05-02T09:24:21.129Z,89.32
2019-05-02T09:29:23.123Z,80.55
2019-05-02T09:34:27.411Z,84.58
2019-05-02T09:39:36.274Z,82.47
2019-05-02T09:44:37.567Z,82.88
2019-05-02T09:49:48.949Z,81.15
2019-05-02T09:54:47.752Z,84.37
2019-05-02T09:59:55.713Z,84.15
2019-05-02T10:04:57.928Z,84.42
2019-05-02T10:10:03.127Z,86.32
2019-05-02T10:15:10.054Z,91.55
2019-05-02T10:20:14.360Z,105.85
2019-05-02T10:25:18.556Z,115.77
2019-05-02T10:30:24.453Z,119.87
2019-05-02T10:35:37.257Z,127.27
2019-05-02T10:40:39.224Z,138.28
2019-05-02T10:45:47.360Z,135.55
2019-05-02T10:50:53.937Z,144.28
2019-05-02T10:55:58.141Z,148.13
2019-05-02T11:01:02.379Z,154.40
2019-05-02T11:06:07.800Z,150.55
2019-05-02T11:11:12.770Z,169.47
2019-05-02T11:16:35.219Z,130.03
2019-05-02T11:21:53.525Z,129.00
2019-05-02T11:26:45.912Z,125.90
2019-05-02T11:31:52.024Z,131.35
2019-05-02T11:36:56.341Z,110.40
2019-05-02T11:42:02.082Z,109.07
2019-05-02T11:47:06.629Z,107.15
2019-05-02T11:52:11.849Z,110.12
2019-05-02T11:57:16.226Z,106.03
2019-05-02T12:02:22.549Z,100.53
2019-05-02T12:07:26.805Z,96.57
2019-05-02T12:12:34.279Z,85.38
2019-05-02T12:17:37.007Z,88.35
2019-05-02T12:22:41.936Z,88.97
2019-05-02T12:27:49.260Z,100.40
2019-05-02T12:32:53.733Z,85.22
2019-05-02T12:37:57.963Z,94.62
2019-05-02T12:43:02.507Z,103.45
2019-05-02T12:48:06.896Z,102.62
2019-05-02T12:53:12.607Z,70.92
2019-05-02T12:58:17.070Z,46.75
2019-05-02T13:03:38.016Z,30.82
2019-05-02T13:08:52.373Z,35.23
2019-05-02T13:13:57.014Z,30.32
2019-05-02T13:19:03.126Z,31.85
2019-05-02T13:24:32.562Z,17.73
2019-05-02T13:29:37.049Z,18.42
2019-05-02T13:34:55.521Z,21.33
2019-05-02T13:40:02.365Z,25.60
2019-05-02T13:45:27.363Z,24.80
2019-05-02T13:50:31.778Z,29.23
2019-05-02T13:55:37.780Z,29.45
2019-05-02T14:00:44.026Z,30.70
2019-05-02T14:05:57.708Z,31.85
2019-05-02T14:11:06.599Z,33.23
2019-05-02T14:16:12.212Z,48.63
2019-05-02T14:21:16.551Z,50.17
2019-05-02T14:26:30.247Z,51.15
2019-05-02T14:31:28.395Z,57.60
2019-05-02T14:36:35.627Z,56.88
2019-05-02T14:41:42.545Z,56.30
2019-05-02T14:46:46.020Z,69.95
2019-05-02T14:51:52.369Z,74.35
2019-05-02T14:57:03.568Z,73.07
2019-05-02T15:02:13.073Z,68.33
2019-05-02T15:07:38.473Z,76.60
2019-05-02T15:12:44.247Z,89.77
2019-05-02T15:17:48.465Z,83.75
2019-05-02T15:22:52.776Z,82.97
2019-05-02T15:27:59.964Z,78.30
2019-05-02T15:33:04.608Z,72.67
2019-05-02T15:38:08.845Z,67.87
2019-05-02T15:43:13.123Z,59.20
2019-05-02T15:48:22.484Z,53.58
2019-05-02T15:53:25.130Z,50.63
2019-05-02T15:58:29.425Z,46.75
2019-05-02T16:03:47.559Z,46.83
2019-05-02T16:08:52.115Z,41.80
2019-05-02T16:13:56.540Z,41.28
2019-05-02T16:19:02.171Z,44.88
2019-05-02T16:24:23.219Z,43.23
2019-05-02T16:29:28.890Z,38.98
2019-05-02T16:34:35.472Z,34.20
2019-05-02T16:39:43.694Z,28.60
2019-05-02T16:44:45.890Z,20.05
2019-05-02T16:49:53.436Z,19.70
2019-05-02T16:54:56.331Z,16.95
2019-05-02T17:00:02.373Z,14.75
2019-05-02T17:05:09.391Z,12.95
2019-05-02T17:10:17.728Z,13.55
2019-05-02T17:15:35.265Z,15.60
2019-05-02T17:20:39.182Z,13.98
2019-05-02T17:25:43.370Z,14.00
2019-05-02T17:30:47.735Z,15.32
2019-05-02T17:35:54.161Z,13.70
2019-05-02T17:40:59.386Z,13.53
2019-05-02T17:46:07.257Z,12.18
2019-05-02T17:51:28.466Z,12.58
2019-05-02T17:56:33.044Z,12.10
2019-05-02T18:01:38.912Z,12.53
2019-05-02T18:06:46.920Z,15.20
2019-05-02T18:11:51.761Z,13.88
2019-05-02T18:16:56.090Z,20.60
2019-05-02T18:22:03.569Z,14.63
2019-05-02T18:27:06.528Z,13.15
2019-05-02T18:32:12.659Z,18.67
2019-05-02T18:37:16.763Z,13.62
2019-05-02T18:42:25.301Z,16.05
2019-05-02T18:47:27.012Z,15.05
2019-05-02T18:52:38.063Z,15.80
2019-05-02T18:57:37.239Z,11.38
2019-05-02T19:02:42.483Z,14.85
2019-05-02T19:07:47.372Z,11.25
2019-05-02T19:12:56.207Z,12.82
2019-05-02T19:17:58.735Z,11.55
2019-05-02T19:23:02.978Z,10.93
2019-05-02T19:28:09.068Z,13.22
2019-05-02T19:33:13.349Z,9.33
2019-05-02T19:38:22.630Z,11.03
2019-05-02T19:43:25.173Z,9.58
2019-05-02T19:48:33.019Z,15.13
2019-05-02T19:53:42.478Z,10.50
2019-05-02T19:58:46.785Z,13.18
2019-05-02T20:03:52.051Z,11.25
2019-05-02T20:08:59.264Z,11.03
2019-05-02T20:14:09.192Z,15.10
2019-05-02T20:19:08.355Z,10.60
2019-05-02T20:24:17.582Z,14.15
2019-05-02T20:29:18.598Z,12.75
2019-05-02T20:34:22.821Z,12.98
2019-05-02T20:45:26.160Z,16.35
2019-05-02T20:50:31.846Z,16.75
2019-05-02T21:01:07.693Z,17.70
2019-05-02T21:06:40.732Z,22.22
2019-05-02T21:11:36.428Z,16.00
2019-05-02T21:16:44.764Z,17.37
2019-05-02T21:21:49.487Z,17.37
2019-05-02T21:26:59.062Z,23.85
2019-05-02T21:32:09.530Z,21.15
2019-05-02T21:37:19.259Z,26.57
2019-05-02T21:42:25.469Z,24.05
2019-05-02T21:47:31.857Z,20.77
2019-05-02T21:52:43.038Z,20.27
2019-05-02T21:57:52.157Z,26.50
2019-05-02T22:03:16.347Z,39.95
2019-05-02T22:08:21.706Z,25.35
2019-05-02T22:13:26.928Z,22.00
2019-05-02T22:18:35.099Z,20.62
2019-05-02T22:23:44.258Z,22.55
2019-05-02T22:28:53.604Z,20.72
2019-05-02T22:33:56.212Z,21.57
2019-05-02T22:39:22.089Z,17.60
2019-05-02T22:44:29.520Z,19.80
2019-05-02T22:50:03.250Z,17.57
2019-05-02T22:54:52.134Z,21.65
2019-05-02T22:59:58.403Z,19.55
2019-05-02T23:05:08.039Z,20.27
2019-05-02T23:10:13.627Z,20.08
2019-05-02T23:15:21.656Z,25.08
2019-05-02T23:20:32.793Z,20.23
2019-05-02T23:25:58.173Z,27.05
2019-05-02T23:31:06.961Z,23.77
2019-05-02T23:36:12.564Z,20.30
2019-05-02T23:41:22.118Z,30.70
2019-05-02T23:46:31.468Z,22.42
2019-05-02T23:51:37.377Z,25.95
2019-05-02T23:56:43.451Z,23.60
